sensor_id;sensor_type;location;lat;lon;timestamp;temperature;humidity
3705;DHT22;1868;48.918;9.438;2022-09-09T00:00:26;13.80;97.40
3705;DHT22;1868;48.918;9.438;2022-09-09T00:03:10;13.80;97.40
3705;DHT22;1868;48.918;9.438;2022-09-09T00:05:50;13.70;97.40
3705;DHT22;1868;48.918;9.438;2022-09-09T00:08:28;13.70;97.40
3705;DHT22;1868;48.918;9.438;2022-09-09T00:11:07;13.70;97.40
3705;DHT22;1868;48.918;9.438;2022-09-09T00:13:41;13.60;97.40
3705;DHT22;1868;48.918;9.438;2022-09-09T00:16:15;13.60;97.40
3705;DHT22;1868;48.918;9.438;2022-09-09T00:18:55;13.60;97.40
3705;DHT22;1868;48.918;9.438;2022-09-09T00:21:32;13.60;97.40
3705;DHT22;1868;48.918;9.438;2022-09-09T00:24:09;13.70;97.40
3705;DHT22;1868;48.918;9.438;2022-09-09T00:26:43;13.60;97.40
3705;DHT22;1868;48.918;9.438;2022-09-09T00:29:20;13.60;97.40
3705;DHT22;1868;48.918;9.438;2022-09-09T00:31:54;13.60;97.40
3705;DHT22;1868;48.918;9.438;2022-09-09T00:34:26;13.60;97.40
3705;DHT22;1868;48.918;9.438;2022-09-09T00:36:57;13.60;97.40
3705;DHT22;1868;48.918;9.438;2022-09-09T00:39:31;13.50;97.40
3705;DHT22;1868;48.918;9.438;2022-09-09T00:42:13;13.50;97.40
3705;DHT22;1868;48.918;9.438;2022-09-09T00:44:58;13.50;97.40
3705;DHT22;1868;48.918;9.438;2022-09-09T00:47:39;13.40;97.40
3705;DHT22;1868;48.918;9.438;2022-09-09T00:50:32;13.40;97.40
3705;DHT22;1868;48.918;9.438;2022-09-09T00:53:23;13.40;97.40
3705;DHT22;1868;48.918;9.438;2022-09-09T00:56:03;13.40;97.40
3705;DHT22;1868;48.918;9.438;2022-09-09T00:58:36;13.40;97.40
3705;DHT22;1868;48.918;9.438;2022-09-09T01:01:09;13.40;97.40
3705;DHT22;1868;48.918;9.438;2022-09-09T01:03:44;13.40;97.40
3705;DHT22;1868;48.918;9.438;2022-09-09T01:06:19;13.40;97.40
3705;DHT22;1868;48.918;9.438;2022-09-09T01:09:04;13.40;97.40
3705;DHT22;1868;48.918;9.438;2022-09-09T01:11:47;13.40;97.40
3705;DHT22;1868;48.918;9.438;2022-09-09T01:14:32;13.50;97.40
3705;DHT22;1868;48.918;9.438;2022-09-09T01:17:11;13.50;97.40
3705;DHT22;1868;48.918;9.438;2022-09-09T01:19:57;13.60;97.40
3705;DHT22;1868;48.918;9.438;2022-09-09T01:22:43;13.60;97.40
3705;DHT22;1868;48.918;9.438;2022-09-09T01:25:30;13.70;97.40
3705;DHT22;1868;48.918;9.438;2022-09-09T01:28:27;13.70;97.40
3705;DHT22;1868;48.918;9.438;2022-09-09T01:31:02;13.80;97.40
3705;DHT22;1868;48.918;9.438;2022-09-09T01:33:38;13.80;97.40
3705;DHT22;1868;48.918;9.438;2022-09-09T01:36:09;13.90;97.40
3705;DHT22;1868;48.918;9.438;2022-09-09T01:38:49;13.90;97.40
3705;DHT22;1868;48.918;9.438;2022-09-09T01:41:19;13.90;97.40
3705;DHT22;1868;48.918;9.438;2022-09-09T01:44:10;13.90;97.40
3705;DHT22;1868;48.918;9.438;2022-09-09T01:46:42;13.90;97.40
3705;DHT22;1868;48.918;9.438;2022-09-09T01:49:27;14.00;97.40
3705;DHT22;1868;48.918;9.438;2022-09-09T01:52:22;14.00;97.40
3705;DHT22;1868;48.918;9.438;2022-09-09T01:54:51;14.10;97.40
3705;DHT22;1868;48.918;9.438;2022-09-09T01:57:28;14.10;97.40
3705;DHT22;1868;48.918;9.438;2022-09-09T02:00:05;14.20;97.40
3705;DHT22;1868;48.918;9.438;2022-09-09T02:02:48;14.20;97.40
3705;DHT22;1868;48.918;9.438;2022-09-09T02:05:37;14.30;97.40
3705;DHT22;1868;48.918;9.438;2022-09-09T02:08:20;14.30;97.40
3705;DHT22;1868;48.918;9.438;2022-09-09T02:11:05;14.30;97.40
3705;DHT22;1868;48.918;9.438;2022-09-09T02:13:43;14.40;97.40
3705;DHT22;1868;48.918;9.438;2022-09-09T02:16:17;14.40;97.40
3705;DHT22;1868;48.918;9.438;2022-09-09T02:18:53;14.40;97.40
3705;DHT22;1868;48.918;9.438;2022-09-09T02:21:34;14.40;97.40
3705;DHT22;1868;48.918;9.438;2022-09-09T02:24:05;14.30;97.40
3705;DHT22;1868;48.918;9.438;2022-09-09T02:26:43;14.30;97.40
3705;DHT22;1868;48.918;9.438;2022-09-09T02:29:20;14.30;97.40
3705;DHT22;1868;48.918;9.438;2022-09-09T02:31:53;14.20;97.40
3705;DHT22;1868;48.918;9.438;2022-09-09T02:34:29;14.20;97.40
3705;DHT22;1868;48.918;9.438;2022-09-09T02:36:59;14.10;97.40
3705;DHT22;1868;48.918;9.438;2022-09-09T02:39:29;14.10;97.40
3705;DHT22;1868;48.918;9.438;2022-09-09T02:41:57;14.00;97.40
3705;DHT22;1868;48.918;9.438;2022-09-09T02:44:32;13.90;97.40
3705;DHT22;1868;48.918;9.438;2022-09-09T02:47:10;13.90;97.40
3705;DHT22;1868;48.918;9.438;2022-09-09T02:49:52;13.80;97.40
3705;DHT22;1868;48.918;9.438;2022-09-09T02:52:35;13.80;97.40
3705;DHT22;1868;48.918;9.438;2022-09-09T02:55:14;13.70;97.40
3705;DHT22;1868;48.918;9.438;2022-09-09T02:57:47;13.70;97.40
3705;DHT22;1868;48.918;9.438;2022-09-09T03:00:24;13.60;97.40
3705;DHT22;1868;48.918;9.438;2022-09-09T03:02:54;13.60;97.40
3705;DHT22;1868;48.918;9.438;2022-09-09T03:05:23;13.50;97.40
3705;DHT22;1868;48.918;9.438;2022-09-09T03:07:52;13.50;97.40
3705;DHT22;1868;48.918;9.438;2022-09-09T03:10:20;13.50;97.40
3705;DHT22;1868;48.918;9.438;2022-09-09T03:12:49;13.50;97.40
3705;DHT22;1868;48.918;9.438;2022-09-09T03:15:18;13.40;97.40
3705;DHT22;1868;48.918;9.438;2022-09-09T03:17:48;13.40;97.40
3705;DHT22;1868;48.918;9.438;2022-09-09T03:20:19;13.30;97.40
3705;DHT22;1868;48.918;9.438;2022-09-09T03:22:48;13.30;97.40
3705;DHT22;1868;48.918;9.438;2022-09-09T03:25:16;13.20;97.40
3705;DHT22;1868;48.918;9.438;2022-09-09T03:27:45;13.10;97.40
3705;DHT22;1868;48.918;9.438;2022-09-09T03:30:13;13.10;97.40
3705;DHT22;1868;48.918;9.438;2022-09-09T03:32:42;13.10;97.40
3705;DHT22;1868;48.918;9.438;2022-09-09T03:35:16;13.00;97.40
3705;DHT22;1868;48.918;9.438;2022-09-09T03:37:45;13.00;97.40
3705;DHT22;1868;48.918;9.438;2022-09-09T03:40:14;12.90;97.40
3705;DHT22;1868;48.918;9.438;2022-09-09T03:42:45;12.90;97.40
3705;DHT22;1868;48.918;9.438;2022-09-09T03:45:13;12.90;97.40
3705;DHT22;1868;48.918;9.438;2022-09-09T03:47:41;12.90;97.40
3705;DHT22;1868;48.918;9.438;2022-09-09T03:50:09;12.80;97.40
3705;DHT22;1868;48.918;9.438;2022-09-09T03:52:45;12.80;97.40
3705;DHT22;1868;48.918;9.438;2022-09-09T03:55:19;12.80;97.40
3705;DHT22;1868;48.918;9.438;2022-09-09T03:57:47;12.90;97.40
3705;DHT22;1868;48.918;9.438;2022-09-09T04:00:16;12.80;97.40
3705;DHT22;1868;48.918;9.438;2022-09-09T04:02:50;12.90;97.40
3705;DHT22;1868;48.918;9.438;2022-09-09T04:05:20;12.90;97.40
3705;DHT22;1868;48.918;9.438;2022-09-09T04:07:50;12.90;97.40
3705;DHT22;1868;48.918;9.438;2022-09-09T04:10:19;12.80;97.40
3705;DHT22;1868;48.918;9.438;2022-09-09T04:12:48;12.80;97.40
3705;DHT22;1868;48.918;9.438;2022-09-09T04:15:16;12.90;97.40
3705;DHT22;1868;48.918;9.438;2022-09-09T04:17:46;12.90;97.40
3705;DHT22;1868;48.918;9.438;2022-09-09T04:20:14;12.90;97.40
3705;DHT22;1868;48.918;9.438;2022-09-09T04:22:42;12.90;97.40
3705;DHT22;1868;48.918;9.438;2022-09-09T04:25:12;12.90;97.40
3705;DHT22;1868;48.918;9.438;2022-09-09T04:27:40;12.90;97.40
3705;DHT22;1868;48.918;9.438;2022-09-09T04:30:10;13.00;97.40
3705;DHT22;1868;48.918;9.438;2022-09-09T04:32:40;13.00;97.40
3705;DHT22;1868;48.918;9.438;2022-09-09T04:35:08;13.00;97.40
3705;DHT22;1868;48.918;9.438;2022-09-09T04:37:36;13.00;97.40
3705;DHT22;1868;48.918;9.438;2022-09-09T04:40:06;13.00;97.40
3705;DHT22;1868;48.918;9.438;2022-09-09T04:42:38;13.00;97.40
3705;DHT22;1868;48.918;9.438;2022-09-09T04:45:12;13.10;97.40
3705;DHT22;1868;48.918;9.438;2022-09-09T04:47:41;13.10;97.40
3705;DHT22;1868;48.918;9.438;2022-09-09T04:50:09;13.10;97.40
3705;DHT22;1868;48.918;9.438;2022-09-09T04:52:38;13.10;97.40
3705;DHT22;1868;48.918;9.438;2022-09-09T04:55:08;13.10;97.40
3705;DHT22;1868;48.918;9.438;2022-09-09T04:57:38;13.20;97.40
3705;DHT22;1868;48.918;9.438;2022-09-09T05:00:07;13.20;97.40
3705;DHT22;1868;48.918;9.438;2022-09-09T05:02:39;13.30;97.40
3705;DHT22;1868;48.918;9.438;2022-09-09T05:05:09;13.30;97.40
3705;DHT22;1868;48.918;9.438;2022-09-09T05:07:38;13.30;97.40
3705;DHT22;1868;48.918;9.438;2022-09-09T05:10:07;13.40;97.40
3705;DHT22;1868;48.918;9.438;2022-09-09T05:12:38;13.50;97.40
3705;DHT22;1868;48.918;9.438;2022-09-09T05:15:07;13.50;97.40
3705;DHT22;1868;48.918;9.438;2022-09-09T05:17:38;13.60;97.40
3705;DHT22;1868;48.918;9.438;2022-09-09T05:20:07;13.60;97.40
3705;DHT22;1868;48.918;9.438;2022-09-09T05:22:42;13.60;97.40
3705;DHT22;1868;48.918;9.438;2022-09-09T05:25:10;13.70;97.40
3705;DHT22;1868;48.918;9.438;2022-09-09T05:27:40;13.80;97.40
3705;DHT22;1868;48.918;9.438;2022-09-09T05:30:09;13.90;97.40
3705;DHT22;1868;48.918;9.438;2022-09-09T05:32:38;13.90;97.40
3705;DHT22;1868;48.918;9.438;2022-09-09T05:35:07;14.00;97.40
3705;DHT22;1868;48.918;9.438;2022-09-09T05:37:38;14.10;97.40
3705;DHT22;1868;48.918;9.438;2022-09-09T05:40:07;14.20;97.40
3705;DHT22;1868;48.918;9.438;2022-09-09T05:42:36;14.30;97.40
3705;DHT22;1868;48.918;9.438;2022-09-09T05:45:08;14.40;97.40
3705;DHT22;1868;48.918;9.438;2022-09-09T05:47:38;14.50;97.40
3705;DHT22;1868;48.918;9.438;2022-09-09T05:50:09;14.60;97.40
3705;DHT22;1868;48.918;9.438;2022-09-09T05:52:37;14.60;97.40
3705;DHT22;1868;48.918;9.438;2022-09-09T05:55:07;14.80;97.40
3705;DHT22;1868;48.918;9.438;2022-09-09T05:57:35;14.90;97.40
3705;DHT22;1868;48.918;9.438;2022-09-09T06:00:04;15.00;97.40
3705;DHT22;1868;48.918;9.438;2022-09-09T06:02:40;15.10;97.40
3705;DHT22;1868;48.918;9.438;2022-09-09T06:05:12;15.20;97.40
3705;DHT22;1868;48.918;9.438;2022-09-09T06:07:42;15.20;97.40
3705;DHT22;1868;48.918;9.438;2022-09-09T06:10:12;15.30;97.40
3705;DHT22;1868;48.918;9.438;2022-09-09T06:12:41;15.50;97.40
3705;DHT22;1868;48.918;9.438;2022-09-09T06:15:09;15.50;97.40
3705;DHT22;1868;48.918;9.438;2022-09-09T06:17:39;15.60;97.40
3705;DHT22;1868;48.918;9.438;2022-09-09T06:20:08;15.70;97.40
3705;DHT22;1868;48.918;9.438;2022-09-09T06:22:39;15.80;97.40
3705;DHT22;1868;48.918;9.438;2022-09-09T06:25:08;15.80;97.40
3705;DHT22;1868;48.918;9.438;2022-09-09T06:27:38;16.10;97.40
3705;DHT22;1868;48.918;9.438;2022-09-09T06:30:08;16.40;97.40
3705;DHT22;1868;48.918;9.438;2022-09-09T06:32:37;16.50;97.40
3705;DHT22;1868;48.918;9.438;2022-09-09T06:35:08;16.60;97.40
3705;DHT22;1868;48.918;9.438;2022-09-09T06:37:37;16.80;97.40
3705;DHT22;1868;48.918;9.438;2022-09-09T06:40:07;17.00;97.40
3705;DHT22;1868;48.918;9.438;2022-09-09T06:42:36;17.10;97.40
3705;DHT22;1868;48.918;9.438;2022-09-09T06:45:21;17.20;97.40
3705;DHT22;1868;48.918;9.438;2022-09-09T06:47:55;17.20;97.40
3705;DHT22;1868;48.918;9.438;2022-09-09T06:50:25;17.30;97.40
3705;DHT22;1868;48.918;9.438;2022-09-09T06:52:53;17.30;97.40
3705;DHT22;1868;48.918;9.438;2022-09-09T06:55:23;17.30;97.40
3705;DHT22;1868;48.918;9.438;2022-09-09T06:57:51;17.40;97.40
3705;DHT22;1868;48.918;9.438;2022-09-09T07:00:22;17.50;97.40
3705;DHT22;1868;48.918;9.438;2022-09-09T07:02:51;17.60;97.40
3705;DHT22;1868;48.918;9.438;2022-09-09T07:05:20;17.80;97.40
3705;DHT22;1868;48.918;9.438;2022-09-09T07:07:50;17.90;97.40
3705;DHT22;1868;48.918;9.438;2022-09-09T07:10:19;18.00;97.40
3705;DHT22;1868;48.918;9.438;2022-09-09T07:12:50;18.10;97.40
3705;DHT22;1868;48.918;9.438;2022-09-09T07:15:22;18.20;97.40
3705;DHT22;1868;48.918;9.438;2022-09-09T07:17:50;18.20;97.40
3705;DHT22;1868;48.918;9.438;2022-09-09T07:20:21;18.40;97.40
3705;DHT22;1868;48.918;9.438;2022-09-09T07:22:54;18.50;97.40
3705;DHT22;1868;48.918;9.438;2022-09-09T07:25:23;18.70;97.40
3705;DHT22;1868;48.918;9.438;2022-09-09T07:27:51;18.70;97.40
3705;DHT22;1868;48.918;9.438;2022-09-09T07:30:19;18.80;97.40
3705;DHT22;1868;48.918;9.438;2022-09-09T07:32:54;18.90;97.40
3705;DHT22;1868;48.918;9.438;2022-09-09T07:35:24;19.10;97.40
3705;DHT22;1868;48.918;9.438;2022-09-09T07:37:55;19.50;97.40
3705;DHT22;1868;48.918;9.438;2022-09-09T07:40:23;19.70;95.90
3705;DHT22;1868;48.918;9.438;2022-09-09T07:42:52;19.80;95.00
3705;DHT22;1868;48.918;9.438;2022-09-09T07:45:21;19.90;95.80
3705;DHT22;1868;48.918;9.438;2022-09-09T07:47:49;19.90;94.80
3705;DHT22;1868;48.918;9.438;2022-09-09T07:50:19;20.10;95.10
3705;DHT22;1868;48.918;9.438;2022-09-09T07:52:49;20.60;94.10
3705;DHT22;1868;48.918;9.438;2022-09-09T07:55:19;20.70;93.80
3705;DHT22;1868;48.918;9.438;2022-09-09T07:57:48;20.90;93.40
3705;DHT22;1868;48.918;9.438;2022-09-09T08:00:16;20.80;92.20
3705;DHT22;1868;48.918;9.438;2022-09-09T08:02:50;20.80;92.20
3705;DHT22;1868;48.918;9.438;2022-09-09T08:05:21;20.70;92.10
3705;DHT22;1868;48.918;9.438;2022-09-09T08:07:50;21.10;92.60
3705;DHT22;1868;48.918;9.438;2022-09-09T08:10:19;21.20;91.20
3705;DHT22;1868;48.918;9.438;2022-09-09T08:12:50;21.80;90.40
3705;DHT22;1868;48.918;9.438;2022-09-09T08:15:39;22.10;89.00
3705;DHT22;1868;48.918;9.438;2022-09-09T08:18:08;22.20;86.20
3705;DHT22;1868;48.918;9.438;2022-09-09T08:20:38;23.00;82.50
3705;DHT22;1868;48.918;9.438;2022-09-09T08:23:06;23.80;81.90
3705;DHT22;1868;48.918;9.438;2022-09-09T08:25:36;24.90;75.90
3705;DHT22;1868;48.918;9.438;2022-09-09T08:28:04;26.20;76.50
3705;DHT22;1868;48.918;9.438;2022-09-09T08:30:32;27.40;67.20
3705;DHT22;1868;48.918;9.438;2022-09-09T08:33:00;27.30;64.80
3705;DHT22;1868;48.918;9.438;2022-09-09T08:35:29;27.80;62.70
3705;DHT22;1868;48.918;9.438;2022-09-09T08:38:00;28.40;60.90
3705;DHT22;1868;48.918;9.438;2022-09-09T08:40:39;28.90;56.90
3705;DHT22;1868;48.918;9.438;2022-09-09T08:43:11;29.70;57.00
3705;DHT22;1868;48.918;9.438;2022-09-09T08:45:49;30.40;52.30
3705;DHT22;1868;48.918;9.438;2022-09-09T08:48:36;30.90;53.10
3705;DHT22;1868;48.918;9.438;2022-09-09T08:51:10;30.10;50.50
3705;DHT22;1868;48.918;9.438;2022-09-09T08:53:43;30.00;51.30
3705;DHT22;1868;48.918;9.438;2022-09-09T08:56:18;30.90;51.70
3705;DHT22;1868;48.918;9.438;2022-09-09T08:58:54;30.40;47.60
3705;DHT22;1868;48.918;9.438;2022-09-09T09:01:41;30.90;49.00
3705;DHT22;1868;48.918;9.438;2022-09-09T09:04:44;31.70;47.90
3705;DHT22;1868;48.918;9.438;2022-09-09T09:07:39;31.60;44.30
3705;DHT22;1868;48.918;9.438;2022-09-09T09:10:33;32.00;47.50
3705;DHT22;1868;48.918;9.438;2022-09-09T09:13:17;32.80;43.20
3705;DHT22;1868;48.918;9.438;2022-09-09T09:15:53;32.90;43.50
3705;DHT22;1868;48.918;9.438;2022-09-09T09:18:29;33.30;43.60
3705;DHT22;1868;48.918;9.438;2022-09-09T09:21:03;33.90;43.60
3705;DHT22;1868;48.918;9.438;2022-09-09T09:23:43;34.20;40.60
3705;DHT22;1868;48.918;9.438;2022-09-09T09:26:14;33.50;44.10
3705;DHT22;1868;48.918;9.438;2022-09-09T09:28:45;34.10;40.10
3705;DHT22;1868;48.918;9.438;2022-09-09T09:31:20;34.20;39.80
3705;DHT22;1868;48.918;9.438;2022-09-09T09:33:51;34.00;38.00
3705;DHT22;1868;48.918;9.438;2022-09-09T09:36:33;33.00;40.50
3705;DHT22;1868;48.918;9.438;2022-09-09T09:39:04;33.00;39.80
3705;DHT22;1868;48.918;9.438;2022-09-09T09:41:56;32.50;42.70
3705;DHT22;1868;48.918;9.438;2022-09-09T09:45:07;33.50;41.70
3705;DHT22;1868;48.918;9.438;2022-09-09T09:47:37;33.10;43.20
3705;DHT22;1868;48.918;9.438;2022-09-09T09:50:19;31.90;44.90
3705;DHT22;1868;48.918;9.438;2022-09-09T09:52:55;31.00;46.50
3705;DHT22;1868;48.918;9.438;2022-09-09T09:55:26;29.40;49.90
3705;DHT22;1868;48.918;9.438;2022-09-09T09:58:01;28.10;54.20
3705;DHT22;1868;48.918;9.438;2022-09-09T10:00:47;27.30;54.00
3705;DHT22;1868;48.918;9.438;2022-09-09T10:03:23;27.00;56.10
3705;DHT22;1868;48.918;9.438;2022-09-09T10:05:54;26.70;57.40
3705;DHT22;1868;48.918;9.438;2022-09-09T10:08:23;26.20;57.70
3705;DHT22;1868;48.918;9.438;2022-09-09T10:11:04;25.60;59.80
3705;DHT22;1868;48.918;9.438;2022-09-09T10:13:50;25.60;62.70
3705;DHT22;1868;48.918;9.438;2022-09-09T10:16:35;27.00;57.80
3705;DHT22;1868;48.918;9.438;2022-09-09T10:19:12;28.50;53.40
3705;DHT22;1868;48.918;9.438;2022-09-09T10:22:01;29.60;49.10
3705;DHT22;1868;48.918;9.438;2022-09-09T10:24:53;30.10;47.20
3705;DHT22;1868;48.918;9.438;2022-09-09T10:27:50;30.00;42.40
3705;DHT22;1868;48.918;9.438;2022-09-09T10:30:36;30.90;42.30
3705;DHT22;1868;48.918;9.438;2022-09-09T10:33:18;30.90;38.80
3705;DHT22;1868;48.918;9.438;2022-09-09T10:36:02;31.40;36.20
3705;DHT22;1868;48.918;9.438;2022-09-09T10:38:40;32.30;34.50
3705;DHT22;1868;48.918;9.438;2022-09-09T10:41:15;32.70;34.50
3705;DHT22;1868;48.918;9.438;2022-09-09T10:44:17;33.20;32.20
3705;DHT22;1868;48.918;9.438;2022-09-09T10:47:05;33.50;31.60
3705;DHT22;1868;48.918;9.438;2022-09-09T10:50:12;33.70;31.60
3705;DHT22;1868;48.918;9.438;2022-09-09T10:53:19;33.20;32.10
3705;DHT22;1868;48.918;9.438;2022-09-09T10:55:59;34.10;30.70
3705;DHT22;1868;48.918;9.438;2022-09-09T10:58:37;33.00;31.80
3705;DHT22;1868;48.918;9.438;2022-09-09T11:01:14;33.10;32.80
3705;DHT22;1868;48.918;9.438;2022-09-09T11:03:49;34.00;31.90
3705;DHT22;1868;48.918;9.438;2022-09-09T11:06:28;33.60;32.40
3705;DHT22;1868;48.918;9.438;2022-09-09T11:09:01;32.70;32.80
3705;DHT22;1868;48.918;9.438;2022-09-09T11:11:34;31.90;37.30
3705;DHT22;1868;48.918;9.438;2022-09-09T11:14:10;31.60;37.60
3705;DHT22;1868;48.918;9.438;2022-09-09T11:16:48;30.40;39.80
3705;DHT22;1868;48.918;9.438;2022-09-09T11:19:24;29.80;41.40
3705;DHT22;1868;48.918;9.438;2022-09-09T11:22:17;29.00;43.20
3705;DHT22;1868;48.918;9.438;2022-09-09T11:24:51;27.20;48.50
3705;DHT22;1868;48.918;9.438;2022-09-09T11:27:24;26.90;49.60
3705;DHT22;1868;48.918;9.438;2022-09-09T11:30:06;27.00;49.90
3705;DHT22;1868;48.918;9.438;2022-09-09T11:33:23;27.30;49.40
3705;DHT22;1868;48.918;9.438;2022-09-09T11:36:13;27.30;51.00
3705;DHT22;1868;48.918;9.438;2022-09-09T11:38:56;27.10;52.60
3705;DHT22;1868;48.918;9.438;2022-09-09T11:41:34;26.70;53.90
3705;DHT22;1868;48.918;9.438;2022-09-09T11:44:10;26.20;55.80
3705;DHT22;1868;48.918;9.438;2022-09-09T11:46:50;25.60;60.10
3705;DHT22;1868;48.918;9.438;2022-09-09T11:49:27;24.90;67.20
3705;DHT22;1868;48.918;9.438;2022-09-09T11:51:58;24.20;73.90
3705;DHT22;1868;48.918;9.438;2022-09-09T11:54:30;23.70;77.30
3705;DHT22;1868;48.918;9.438;2022-09-09T11:56:59;23.20;78.20
3705;DHT22;1868;48.918;9.438;2022-09-09T11:59:29;22.70;76.30
3705;DHT22;1868;48.918;9.438;2022-09-09T12:01:59;22.20;84.70
3705;DHT22;1868;48.918;9.438;2022-09-09T12:04:33;21.80;92.00
3705;DHT22;1868;48.918;9.438;2022-09-09T12:07:20;21.60;90.20
3705;DHT22;1868;48.918;9.438;2022-09-09T12:09:56;21.40;92.20
3705;DHT22;1868;48.918;9.438;2022-09-09T12:12:29;21.30;91.60
3705;DHT22;1868;48.918;9.438;2022-09-09T12:15:18;21.40;91.50
3705;DHT22;1868;48.918;9.438;2022-09-09T12:17:50;21.40;92.70
3705;DHT22;1868;48.918;9.438;2022-09-09T12:20:21;21.40;92.90
3705;DHT22;1868;48.918;9.438;2022-09-09T12:23:13;21.50;94.60
3705;DHT22;1868;48.918;9.438;2022-09-09T12:26:07;21.80;92.50
3705;DHT22;1868;48.918;9.438;2022-09-09T12:28:54;23.50;89.90
3705;DHT22;1868;48.918;9.438;2022-09-09T12:31:32;24.90;86.00
3705;DHT22;1868;48.918;9.438;2022-09-09T12:34:15;26.50;77.60
3705;DHT22;1868;48.918;9.438;2022-09-09T12:36:49;27.80;72.00
3705;DHT22;1868;48.918;9.438;2022-09-09T12:39:25;27.70;69.40
3705;DHT22;1868;48.918;9.438;2022-09-09T12:41:59;28.20;64.80
3705;DHT22;1868;48.918;9.438;2022-09-09T12:44:28;28.40;63.50
3705;DHT22;1868;48.918;9.438;2022-09-09T12:46:58;28.70;58.00
3705;DHT22;1868;48.918;9.438;2022-09-09T12:49:35;28.60;61.40
3705;DHT22;1868;48.918;9.438;2022-09-09T12:52:08;28.90;55.80
3705;DHT22;1868;48.918;9.438;2022-09-09T12:54:44;28.00;55.70
3705;DHT22;1868;48.918;9.438;2022-09-09T12:57:15;27.30;56.60
3705;DHT22;1868;48.918;9.438;2022-09-09T12:59:44;26.50;58.60
3705;DHT22;1868;48.918;9.438;2022-09-09T13:02:21;26.40;60.30
3705;DHT22;1868;48.918;9.438;2022-09-09T13:04:50;27.00;58.40
3705;DHT22;1868;48.918;9.438;2022-09-09T13:07:21;27.40;57.20
3705;DHT22;1868;48.918;9.438;2022-09-09T13:09:52;26.80;57.00
3705;DHT22;1868;48.918;9.438;2022-09-09T13:12:22;26.20;59.60
3705;DHT22;1868;48.918;9.438;2022-09-09T13:14:54;25.90;59.60
3705;DHT22;1868;48.918;9.438;2022-09-09T13:17:25;25.90;63.50
3705;DHT22;1868;48.918;9.438;2022-09-09T13:19:56;26.90;63.70
3705;DHT22;1868;48.918;9.438;2022-09-09T13:22:29;27.40;62.50
3705;DHT22;1868;48.918;9.438;2022-09-09T13:25:03;27.70;54.90
3705;DHT22;1868;48.918;9.438;2022-09-09T13:27:35;27.30;53.90
3705;DHT22;1868;48.918;9.438;2022-09-09T13:30:23;27.40;55.10
3705;DHT22;1868;48.918;9.438;2022-09-09T13:33:05;27.60;57.00
3705;DHT22;1868;48.918;9.438;2022-09-09T13:35:46;27.10;55.40
3705;DHT22;1868;48.918;9.438;2022-09-09T13:38:16;26.50;55.70
3705;DHT22;1868;48.918;9.438;2022-09-09T13:40:56;26.00;59.30
3705;DHT22;1868;48.918;9.438;2022-09-09T13:43:27;25.70;59.20
3705;DHT22;1868;48.918;9.438;2022-09-09T13:45:58;25.40;58.90
3705;DHT22;1868;48.918;9.438;2022-09-09T13:48:28;25.10;59.50
3705;DHT22;1868;48.918;9.438;2022-09-09T13:50:58;24.80;61.20
3705;DHT22;1868;48.918;9.438;2022-09-09T13:53:28;24.40;62.20
3705;DHT22;1868;48.918;9.438;2022-09-09T13:55:57;24.30;63.70
3705;DHT22;1868;48.918;9.438;2022-09-09T13:58:28;24.40;64.00
3705;DHT22;1868;48.918;9.438;2022-09-09T14:00:57;25.80;59.80
3705;DHT22;1868;48.918;9.438;2022-09-09T14:03:25;26.80;56.70
3705;DHT22;1868;48.918;9.438;2022-09-09T14:05:53;27.20;60.70
3705;DHT22;1868;48.918;9.438;2022-09-09T14:08:24;27.50;56.30
3705;DHT22;1868;48.918;9.438;2022-09-09T14:10:53;28.30;56.70
3705;DHT22;1868;48.918;9.438;2022-09-09T14:13:25;27.90;51.90
3705;DHT22;1868;48.918;9.438;2022-09-09T14:15:54;27.50;50.50
3705;DHT22;1868;48.918;9.438;2022-09-09T14:18:26;26.90;52.90
3705;DHT22;1868;48.918;9.438;2022-09-09T14:20:54;26.40;54.20
3705;DHT22;1868;48.918;9.438;2022-09-09T14:23:23;26.00;53.70
3705;DHT22;1868;48.918;9.438;2022-09-09T14:25:54;25.70;54.80
3705;DHT22;1868;48.918;9.438;2022-09-09T14:28:23;25.50;56.60
3705;DHT22;1868;48.918;9.438;2022-09-09T14:31:16;25.30;56.70
3705;DHT22;1868;48.918;9.438;2022-09-09T14:33:45;25.40;57.80
3705;DHT22;1868;48.918;9.438;2022-09-09T14:36:13;25.30;58.30
3705;DHT22;1868;48.918;9.438;2022-09-09T14:38:41;25.10;57.20
3705;DHT22;1868;48.918;9.438;2022-09-09T14:41:11;24.80;58.00
3705;DHT22;1868;48.918;9.438;2022-09-09T14:43:40;24.70;58.30
3705;DHT22;1868;48.918;9.438;2022-09-09T14:46:09;24.70;60.30
3705;DHT22;1868;48.918;9.438;2022-09-09T14:48:40;24.60;58.10
3705;DHT22;1868;48.918;9.438;2022-09-09T14:51:11;25.00;58.40
3705;DHT22;1868;48.918;9.438;2022-09-09T14:53:42;25.30;57.50
3705;DHT22;1868;48.918;9.438;2022-09-09T14:56:12;25.10;58.10
3705;DHT22;1868;48.918;9.438;2022-09-09T14:58:42;25.10;57.40
3705;DHT22;1868;48.918;9.438;2022-09-09T15:01:12;25.70;54.90
3705;DHT22;1868;48.918;9.438;2022-09-09T15:03:49;26.50;54.60
3705;DHT22;1868;48.918;9.438;2022-09-09T15:06:23;27.10;50.70
3705;DHT22;1868;48.918;9.438;2022-09-09T15:09:12;27.60;48.40
3705;DHT22;1868;48.918;9.438;2022-09-09T15:11:53;27.90;45.90
3705;DHT22;1868;48.918;9.438;2022-09-09T15:14:24;27.40;47.20
3705;DHT22;1868;48.918;9.438;2022-09-09T15:16:53;27.00;47.90
3705;DHT22;1868;48.918;9.438;2022-09-09T15:19:23;26.50;47.90
3705;DHT22;1868;48.918;9.438;2022-09-09T15:21:51;26.20;48.80
3705;DHT22;1868;48.918;9.438;2022-09-09T15:24:26;25.90;50.30
3705;DHT22;1868;48.918;9.438;2022-09-09T15:26:54;25.70;52.30
3705;DHT22;1868;48.918;9.438;2022-09-09T15:29:23;25.30;52.60
3705;DHT22;1868;48.918;9.438;2022-09-09T15:31:53;25.10;53.70
3705;DHT22;1868;48.918;9.438;2022-09-09T15:34:23;24.90;54.60
3705;DHT22;1868;48.918;9.438;2022-09-09T15:36:52;25.00;54.80
3705;DHT22;1868;48.918;9.438;2022-09-09T15:39:22;25.00;53.90
3705;DHT22;1868;48.918;9.438;2022-09-09T15:41:50;24.80;55.10
3705;DHT22;1868;48.918;9.438;2022-09-09T15:44:18;24.70;55.10
3705;DHT22;1868;48.918;9.438;2022-09-09T15:46:50;24.60;55.40
3705;DHT22;1868;48.918;9.438;2022-09-09T15:49:23;24.40;57.80
3705;DHT22;1868;48.918;9.438;2022-09-09T15:51:53;24.10;59.80
3705;DHT22;1868;48.918;9.438;2022-09-09T15:54:23;23.80;59.80
3705;DHT22;1868;48.918;9.438;2022-09-09T15:56:57;23.70;59.90
3705;DHT22;1868;48.918;9.438;2022-09-09T15:59:28;23.40;60.70
3705;DHT22;1868;48.918;9.438;2022-09-09T16:01:58;23.30;62.50
3705;DHT22;1868;48.918;9.438;2022-09-09T16:04:28;23.10;62.30
3705;DHT22;1868;48.918;9.438;2022-09-09T16:06:59;22.90;62.90
3705;DHT22;1868;48.918;9.438;2022-09-09T16:09:30;22.70;64.20
3705;DHT22;1868;48.918;9.438;2022-09-09T16:12:00;22.60;65.70
3705;DHT22;1868;48.918;9.438;2022-09-09T16:14:29;22.50;66.30
3705;DHT22;1868;48.918;9.438;2022-09-09T16:17:00;22.40;67.70
3705;DHT22;1868;48.918;9.438;2022-09-09T16:19:30;22.30;66.60
3705;DHT22;1868;48.918;9.438;2022-09-09T16:21:59;22.20;67.20
3705;DHT22;1868;48.918;9.438;2022-09-09T16:24:27;22.10;67.70
3705;DHT22;1868;48.918;9.438;2022-09-09T16:26:55;21.90;70.70
3705;DHT22;1868;48.918;9.438;2022-09-09T16:29:24;21.80;70.50
3705;DHT22;1868;48.918;9.438;2022-09-09T16:31:54;21.70;70.90
3705;DHT22;1868;48.918;9.438;2022-09-09T16:34:30;21.60;71.70
3705;DHT22;1868;48.918;9.438;2022-09-09T16:37:00;21.60;70.40
3705;DHT22;1868;48.918;9.438;2022-09-09T16:39:28;21.50;71.70
3705;DHT22;1868;48.918;9.438;2022-09-09T16:41:57;21.50;71.70
3705;DHT22;1868;48.918;9.438;2022-09-09T16:44:25;21.40;72.40
3705;DHT22;1868;48.918;9.438;2022-09-09T16:46:54;21.40;72.00